Briefing drone pour Le bosc-roger-en-roumois

Rechercher une autre localisation

Conditions de vol :


Nous sommes le : Jeudi 26 mai 2022
Il est 04:17 UTC (06:17 LT)

Lever de soleil : 03:34 UTC (05:34 LT)
Coucher de soleil : 20:12 UTC (22:12 LT)

Météo

L'essentiel des conditions de vol

VIGILANCE MÉTÉO FRANCE - Eure (27)
Pas de vigilances particulieres
CARTE TEMSI
CARTES DES FRONTS
METAR de LFOP
LFOP 260400Z AUTO 24006KT 220V290 9999 SCT007 BKN013 OVC027 12/11 Q1023

Date d'émission: 26/05/2022
Heure d'émission: 04:00 UTC
Vent: 240° (variable du 220° au 290°) pour 6 KT (11 km/h)
Visibilité horizontale: > 10 km
Plafond :
- Nuages épars à 700ft (213m)
- Nuages morcelés à 1300ft (396m)
- Couvert à 2700ft (823m)
Température: 12 °C
Point de rosée: 11 °C
Humidité: 94%
Pression (QNH): 1023 hPa
TAF de LFOP
LFOP 252002Z 2520/2618 CNL

Conditions prévues :

Heure d'émission : Bulletin éffectué le 25 à 20:00 UTC
Prévision : Valide du 25 a 20:00 UTC au 26 a 18:00 UTC
Nuages : à 0ft (0 m)
WEBCAM POUR LE BOSC-ROGER-EN-ROUMOIS

Réglementation

Voler en sécurité

CARTES AERONAUTIQUE 1/500.000
CARTES VAC (LFOP)
SUP AIP




Chargement des AIP...
NOTAM (LE BOSC-ROGER-EN-ROUMOIS + Terrain à proximité / FIR )




Chargement des NOTAMS...
CONTACT PREFECTURE 27


Avertissement : Les données mises à disposition sont indicatives. Oxygène Drone ne pourra être tenu responsable de dégâts causés aux biens et aux personnes.